Time;durP1;ratioP1;P1;durP2;ratioP2;P2;SDS_P1;SDS_P2;PMS_P1;PMS_P2;Temp;Humidity;BMP_temperature;BMP_pressure;BME280_temperature;BME280_humidity;BME280_pressure;Samples;Min_cycle;Max_cycle;Signal;HPM_P1;HPM_P2
2022/03/06 00:01:01;;;;;;;;;46.67;38.67;;;;;5.82;40.65;99121.91;5056475;28;45298;-85
2022/03/06 00:03:26;;;;;;;;;53.67;40.67;;;;;5.73;41.06;99116.84;5033147;28;48108;-85
2022/03/06 00:05:52;;;;;;;;;50.00;39.33;;;;;5.67;41.47;99117.00;5054720;28;45442;-85
2022/03/06 00:08:17;;;;;;;;;45.33;38.67;;;;;5.60;41.59;99115.38;5046597;28;45436;-86
2022/03/06 00:10:43;;;;;;;;;45.00;38.00;;;;;5.56;41.73;99121.56;5052664;28;45489;-86
2022/03/06 00:13:08;;;;;;;;;47.00;37.33;;;;;5.50;42.03;99122.56;5071597;28;46241;-86
2022/03/06 00:15:34;;;;;;;;;47.67;40.33;;;;;5.47;42.28;99124.38;5056648;28;45341;-86
2022/03/06 00:17:59;;;;;;;;;50.67;40.00;;;;;5.42;42.19;99131.44;5055656;28;45289;-87
2022/03/06 00:20:25;;;;;;;;;53.67;41.67;;;;;5.34;42.41;99136.81;5056787;28;45582;-88
2022/03/06 00:22:50;;;;;;;;;40.33;34.33;;;;;5.29;42.58;99137.78;5037813;28;47008;-87
2022/03/06 00:25:16;;;;;;;;;44.67;38.67;;;;;5.23;42.53;99131.78;5056250;28;45235;-87
2022/03/06 00:27:42;;;;;;;;;44.33;38.67;;;;;5.20;42.91;99137.06;5050607;28;45366;-87
2022/03/06 00:30:08;;;;;;;;;46.67;38.67;;;;;5.17;42.76;99142.34;5056408;28;45487;-86
2022/03/06 00:32:33;;;;;;;;;48.00;39.67;;;;;5.15;42.81;99151.13;5038362;28;46596;-86
2022/03/06 00:34:59;;;;;;;;;43.00;36.00;;;;;5.13;43.06;99142.44;5057873;28;45370;-87
2022/03/06 00:37:24;;;;;;;;;53.00;41.00;;;;;5.11;43.01;99145.06;5038539;28;45378;-87
2022/03/06 00:39:50;;;;;;;;;52.00;39.67;;;;;5.09;43.13;99145.97;5056140;28;45477;-86
2022/03/06 00:42:15;;;;;;;;;47.00;37.67;;;;;5.08;43.50;99150.34;5058173;28;46145;-86
2022/03/06 00:44:40;;;;;;;;;55.33;42.00;;;;;5.06;44.15;99143.41;5055899;28;45321;-87
2022/03/06 00:47:06;;;;;;;;;45.00;37.00;;;;;5.03;44.17;99141.72;5055908;28;45595;-87
2022/03/06 00:49:32;;;;;;;;;48.33;40.67;;;;;5.00;44.27;99152.25;5055371;28;45315;-87
2022/03/06 00:51:58;;;;;;;;;56.33;41.67;;;;;4.97;45.17;99154.91;5045486;28;45531;-87
2022/03/06 00:54:24;;;;;;;;;45.67;39.33;;;;;4.93;44.55;99158.44;5037307;28;45423;-86
2022/03/06 00:56:49;;;;;;;;;43.33;38.67;;;;;4.90;44.40;99154.13;5045926;28;45341;-86
2022/03/06 00:59:15;;;;;;;;;53.33;39.33;;;;;4.90;44.61;99163.72;5055102;28;45546;-87
2022/03/06 01:01:41;;;;;;;;;47.67;36.33;;;;;4.90;45.13;99163.72;5049913;28;45331;-87
2022/03/06 01:04:07;;;;;;;;;41.00;33.67;;;;;4.87;46.30;99161.16;5055736;28;45425;-87
2022/03/06 01:06:32;;;;;;;;;44.33;40.00;;;;;4.81;46.36;99166.50;5055954;28;45476;-86
2022/03/06 01:08:58;;;;;;;;;45.67;39.33;;;;;4.76;46.16;99168.31;5056083;28;45421;-87
2022/03/06 01:11:24;;;;;;;;;53.33;41.00;;;;;4.72;45.67;99167.50;5049934;28;46582;-87
2022/03/06 01:13:49;;;;;;;;;47.00;40.00;;;;;4.70;45.75;99168.41;5067703;28;45471;-87
2022/03/06 01:16:15;;;;;;;;;48.33;39.33;;;;;4.65;45.84;99168.50;5057061;28;45542;-86
2022/03/06 01:18:41;;;;;;;;;43.00;37.00;;;;;4.62;45.71;99170.28;5058166;28;45361;-85
2022/03/06 01:21:08;;;;;;;;;46.67;39.00;;;;;4.61;45.09;99163.34;5034514;28;46552;-74
2022/03/06 01:23:35;;;;;;;;;41.00;36.00;;;;;4.61;44.89;99160.72;5052191;28;45440;-74
2022/03/06 01:26:00;;;;;;;;;47.00;39.67;;;;;4.61;45.09;99168.56;5051457;28;45435;-74
2022/03/06 01:28:26;;;;;;;;;51.67;40.00;;;;;4.59;45.75;99165.97;5062580;28;45337;-74
2022/03/06 01:30:51;;;;;;;;;51.33;41.00;;;;;4.55;45.33;99166.88;5052497;28;46563;-75
2022/03/06 01:33:17;;;;;;;;;47.33;40.67;;;;;4.52;45.63;99166.97;5053367;28;45429;-74
2022/03/06 01:35:42;;;;;;;;;46.67;38.00;;;;;4.48;45.02;99171.34;5055334;28;45382;-74
2022/03/06 01:38:07;;;;;;;;;49.67;39.33;;;;;4.47;45.05;99168.78;5033293;28;45582;-74
2022/03/06 01:40:33;;;;;;;;;41.67;38.67;;;;;4.45;44.79;99165.31;5055178;28;46174;-74
2022/03/06 01:42:58;;;;;;;;;45.00;39.67;;;;;4.43;44.09;99165.34;5049944;28;45308;-73
2022/03/06 01:45:24;;;;;;;;;47.33;37.67;;;;;4.43;45.18;99170.56;5055228;28;45471;-74
2022/03/06 01:47:53;;;;;;;;;45.00;39.00;;;;;4.41;45.98;99166.25;5045531;28;45666;-73
2022/03/06 01:50:20;;;;;;;;;45.33;39.67;;;;;4.38;45.69;99164.53;5054801;28;45528;-74
2022/03/06 01:52:47;;;;;;;;;48.67;39.00;;;;;4.34;45.09;99165.47;5048289;28;45365;-74
2022/03/06 01:55:15;;;;;;;;;10.00;6.33;;;;;4.34;46.30;99157.66;5054881;28;45346;-74
2022/03/06 01:57:42;;;;;;;;;49.33;42.00;;;;;4.33;47.03;99166.38;5038097;28;45583;-74
2022/03/06 02:00:12;;;;;;;;;48.33;39.67;;;;;4.32;46.33;99163.78;5045650;28;46461;-74
2022/03/06 02:02:39;;;;;;;;;54.00;41.67;;;;;4.28;46.60;99160.34;5035703;28;45536;-74
2022/03/06 02:05:05;;;;;;;;;51.00;39.00;;;;;4.22;46.18;99170.84;5054475;28;45449;-74
2022/03/06 02:07:31;;;;;;;;;43.33;37.00;;;;;4.16;46.16;99169.22;5035283;28;45765;-74
2022/03/06 02:09:57;;;;;;;;;43.00;37.67;;;;;4.10;46.20;99174.50;5054535;28;46294;-73
2022/03/06 02:12:23;;;;;;;;;50.67;41.33;;;;;4.03;46.36;99174.59;5052668;28;45431;-74
2022/03/06 02:14:54;;;;;;;;;50.67;40.33;;;;;3.96;46.36;99171.22;5054631;28;45546;-73
2022/03/06 02:17:21;;;;;;;;;59.00;40.00;;;;;3.94;46.30;99174.72;5036056;28;45406;-74
2022/03/06 02:20:01;;;;;;;;;44.33;39.00;;;;;3.93;45.93;99175.59;5054342;28;46193;-74
2022/03/06 02:22:29;;;;;;;;;45.67;38.00;;;;;3.92;46.89;99173.88;5049367;28;45494;-74
2022/03/06 02:24:56;;;;;;;;;56.67;40.67;;;;;3.90;46.92;99176.50;5036173;28;45365;-74
2022/03/06 02:27:22;;;;;;;;;45.00;41.00;;;;;3.90;46.82;99179.09;5045524;28;45506;-74
2022/03/06 02:29:47;;;;;;;;;45.67;41.00;;;;;3.90;46.89;99167.81;5054223;28;46079;-74
2022/03/06 02:32:16;;;;;;;;;46.67;40.33;;;;;3.91;46.67;99174.75;5035938;28;45436;-74
2022/03/06 02:34:43;;;;;;;;;53.33;39.33;;;;;3.90;46.72;99179.09;5036073;28;45426;-73
2022/03/06 02:37:10;;;;;;;;;50.33;40.33;;;;;3.90;46.75;99181.72;5050893;28;45433;-74
2022/03/06 02:39:35;;;;;;;;;43.67;37.00;;;;;3.91;46.97;99179.97;5057748;28;45516;-74
2022/03/06 02:42:03;;;;;;;;;46.33;38.33;;;;;3.89;47.51;99179.13;5056670;28;45679;-74
2022/03/06 02:44:29;;;;;;;;;38.33;31.67;;;;;3.89;47.19;99177.38;5057815;28;45377;-74
2022/03/06 02:46:55;;;;;;;;;45.67;38.67;;;;;3.88;47.53;99180.00;5055723;28;45586;-73
2022/03/06 02:49:21;;;;;;;;;45.00;39.33;;;;;3.85;47.92;99176.53;5055925;28;47082;-73
2022/03/06 02:51:47;;;;;;;;;50.33;40.67;;;;;3.81;48.12;99176.63;5054372;28;45345;-74
2022/03/06 02:54:14;;;;;;;;;47.67;38.00;;;;;3.77;48.41;99175.78;5057532;28;45457;-73
2022/03/06 02:56:40;;;;;;;;;55.67;40.33;;;;;3.75;47.52;99174.06;5051980;28;45306;-74
2022/03/06 02:59:07;;;;;;;;;46.00;40.33;;;;;3.70;47.35;99168.03;5054813;28;45638;-74
2022/03/06 03:01:40;;;;;;;;;43.00;35.00;;;;;3.69;47.77;99171.53;5035091;28;45465;-74
2022/03/06 03:04:08;;;;;;;;;45.00;36.67;;;;;3.66;47.61;99169.00;5057482;28;45567;-74
2022/03/06 03:06:33;;;;;;;;;42.00;37.67;;;;;3.63;47.64;99163.81;5054989;28;45519;-73
2022/03/06 03:08:59;;;;;;;;;48.67;39.33;;;;;3.63;47.54;99167.28;5053786;28;46176;-74
2022/03/06 03:11:25;;;;;;;;;44.00;35.33;;;;;3.62;47.93;99167.28;5052329;28;45437;-87
2022/03/06 03:13:50;;;;;;;;;44.00;37.33;;;;;3.60;48.29;99167.31;5054158;28;45378;-87
2022/03/06 03:16:15;;;;;;;;;43.00;36.00;;;;;3.58;49.36;99173.41;5056433;28;45527;-87
2022/03/06 03:18:41;;;;;;;;;42.67;38.67;;;;;3.56;48.76;99167.34;5057398;28;45813;-86
2022/03/06 03:21:06;;;;;;;;;46.33;39.00;;;;;3.55;48.63;99173.44;5057645;28;45325;-87
2022/03/06 03:23:32;;;;;;;;;48.67;40.00;;;;;3.53;48.76;99168.25;5057676;28;45251;-86
2022/03/06 03:25:57;;;;;;;;;41.67;35.00;;;;;3.55;48.56;99170.84;5056930;28;45274;-87
2022/03/06 03:28:22;;;;;;;;;57.67;41.67;;;;;3.54;48.27;99169.97;5039173;28;48336;-86
2022/03/06 03:30:48;;;;;;;;;57.00;41.00;;;;;3.55;48.33;99176.03;5057621;28;45331;-85
2022/03/06 03:33:13;;;;;;;;;57.67;41.67;;;;;3.54;48.28;99169.97;5051808;28;45416;-85
2022/03/06 03:35:39;;;;;;;;;49.50;33.50;;;;;3.54;48.34;99175.19;5057927;28;45280;-86
2022/03/06 03:38:04;;;;;;;;;52.67;41.67;;;;;3.53;48.73;99175.19;5056315;28;46272;-86
2022/03/06 03:40:30;;;;;;;;;42.00;36.33;;;;;3.52;48.33;99182.16;5059221;28;45179;-86
2022/03/06 03:42:55;;;;;;;;;41.33;37.67;;;;;3.53;48.11;99178.66;5039515;28;45456;-85
2022/03/06 03:45:21;;;;;;;;;41.00;35.67;;;;;3.53;47.90;99186.47;5057370;28;45429;-86
2022/03/06 03:47:46;;;;;;;;;46.67;38.33;;;;;3.52;47.47;99187.34;5056569;28;45397;-86
2022/03/06 03:50:12;;;;;;;;;37.33;32.67;;;;;3.52;47.68;99186.53;5056869;28;45428;-86
2022/03/06 03:52:38;;;;;;;;;40.33;30.67;;;;;3.51;47.60;99193.47;5054449;28;45349;-86
2022/03/06 03:55:04;;;;;;;;;44.33;38.67;;;;;3.48;47.83;99190.91;5038667;28;45501;-86
2022/03/06 03:57:30;;;;;;;;;45.67;37.67;;;;;3.47;47.63;99190.03;5047770;28;46730;-86
2022/03/06 03:59:55;;;;;;;;;34.67;30.33;;;;;3.44;48.00;99195.28;5057365;28;45287;-86
2022/03/06 04:02:21;;;;;;;;;44.00;40.00;;;;;3.43;48.37;99203.97;5056818;28;45490;-86
2022/03/06 04:04:46;;;;;;;;;41.33;36.67;;;;;3.42;48.17;99204.00;5056810;28;45323;-86
2022/03/06 04:07:12;;;;;;;;;49.00;38.67;;;;;3.40;48.29;99203.13;5051379;28;46096;-86
2022/03/06 04:09:37;;;;;;;;;44.33;38.33;;;;;3.39;48.37;99206.63;5054542;28;45391;-86
2022/03/06 04:12:03;;;;;;;;;53.67;41.67;;;;;3.36;48.49;99204.91;5037782;28;45568;-86
2022/03/06 04:14:28;;;;;;;;;48.33;38.33;;;;;3.36;48.98;99212.72;5044922;28;45235;-86
2022/03/06 04:16:54;;;;;;;;;41.33;36.67;;;;;3.35;48.91;99208.38;5056589;28;45460;-86
2022/03/06 04:19:19;;;;;;;;;38.33;34.67;;;;;3.34;49.17;99211.03;5056871;28;45260;-86
2022/03/06 04:21:45;;;;;;;;;43.67;36.33;;;;;3.32;49.07;99211.03;5056332;28;45804;-86
2022/03/06 04:24:10;;;;;;;;;44.00;36.33;;;;;3.31;48.97;99205.84;5056767;28;45702;-86
2022/03/06 04:26:36;;;;;;;;;41.33;32.00;;;;;3.29;49.12;99211.06;5068356;28;47950;-86
2022/03/06 04:29:03;;;;;;;;;54.00;41.00;;;;;3.26;48.93;99203.28;5056062;28;45429;-86
2022/03/06 04:31:28;;;;;;;;;45.67;38.67;;;;;3.22;50.72;99206.78;5052197;28;45647;-85
2022/03/06 04:33:54;;;;;;;;;48.67;38.33;;;;;3.14;50.36;99212.06;5054615;28;45519;-85
2022/03/06 04:36:19;;;;;;;;;49.00;38.00;;;;;3.11;50.96;99206.03;5055114;28;46177;-87
2022/03/06 04:38:45;;;;;;;;;46.67;41.67;;;;;3.07;50.49;99209.53;5035618;28;45442;-87
2022/03/06 04:41:11;;;;;;;;;42.00;35.33;;;;;3.05;51.06;99213.88;5039756;28;45464;-87
2022/03/06 04:43:37;;;;;;;;;48.00;37.33;;;;;3.01;50.68;99214.81;5056641;28;45211;-86
2022/03/06 04:46:02;;;;;;;;;49.33;38.00;;;;;2.99;50.91;99224.38;5056434;28;45349;-87
2022/03/06 04:48:28;;;;;;;;;52.00;37.33;;;;;2.97;50.76;99219.16;5056206;28;45243;-86
2022/03/06 04:50:53;;;;;;;;;40.67;36.33;;;;;2.96;50.56;99216.56;5056361;28;45418;-87
2022/03/06 04:53:19;;;;;;;;;41.67;37.33;;;;;2.93;50.36;99216.59;5056187;28;45454;-86
2022/03/06 04:55:45;;;;;;;;;42.67;38.33;;;;;2.91;50.62;99220.94;5055726;28;45205;-87
2022/03/06 04:58:10;;;;;;;;;40.67;36.00;;;;;2.90;50.61;99221.81;5055565;28;45350;-87
2022/03/06 05:00:36;;;;;;;;;38.33;33.33;;;;;2.89;50.26;99218.34;5055556;28;45449;-88
2022/03/06 05:03:01;;;;;;;;;42.33;36.67;;;;;2.89;50.31;99228.75;5056276;28;45433;-88
2022/03/06 05:05:27;;;;;;;;;44.00;37.00;;;;;2.90;49.72;99229.63;5056307;28;46227;-88
2022/03/06 05:07:52;;;;;;;;;44.33;41.33;;;;;2.88;50.23;99228.78;5046038;28;45271;-87
2022/03/06 05:10:18;;;;;;;;;40.00;35.00;;;;;2.88;50.35;99226.16;5057559;28;45476;-87
2022/03/06 05:12:43;;;;;;;;;41.33;38.33;;;;;2.86;50.21;99226.19;5050064;28;45510;-87
2022/03/06 05:15:11;;;;;;;;;42.67;37.00;;;;;2.86;50.61;99222.72;5055975;28;45591;-87
2022/03/06 05:17:38;;;;;;;;;45.67;37.33;;;;;2.86;50.53;99225.31;5056075;28;45231;-87
2022/03/06 05:20:05;;;;;;;;;42.67;33.67;;;;;2.85;50.43;99221.84;5055347;28;45491;-87
2022/03/06 05:22:30;;;;;;;;;39.33;36.00;;;;;2.85;50.67;99219.25;5055932;28;45433;-87
2022/03/06 05:24:57;;;;;;;;;42.33;33.67;;;;;2.83;50.54;99221.03;5055987;28;45495;-87
2022/03/06 05:27:23;;;;;;;;;41.33;37.67;;;;;2.82;50.95;99219.28;5036578;28;45337;-86
2022/03/06 05:29:49;;;;;;;;;47.67;38.67;;;;;2.82;50.68;99221.03;5055642;28;45524;-87
2022/03/06 05:32:20;;;;;;;;;39.67;36.67;;;;;2.80;50.59;99218.44;5052184;28;45369;-87
2022/03/06 05:34:46;;;;;;;;;45.67;39.00;;;;;2.78;50.58;99221.03;5055621;28;45488;-87
2022/03/06 05:37:11;;;;;;;;;43.33;36.67;;;;;2.79;50.88;99221.91;5037437;28;45460;-87
2022/03/06 05:39:43;;;;;;;;;48.33;41.33;;;;;2.79;50.97;99221.91;5057293;28;45794;-87
2022/03/06 05:42:09;;;;;;;;;62.75;46.00;;;;;2.78;51.14;99220.19;5054595;28;45290;-88
2022/03/06 05:44:34;;;;;;;;;59.00;46.75;;;;;2.77;51.24;99221.06;5055631;28;45413;-87
2022/03/06 05:47:00;;;;;;;;;41.33;39.33;;;;;2.74;51.57;99216.72;5055536;28;45226;-87
2022/03/06 05:49:26;;;;;;;;;61.00;47.00;;;;;2.74;51.56;99223.66;5055827;28;45168;-87
2022/03/06 05:51:51;;;;;;;;;60.00;46.25;;;;;2.69;51.34;99221.09;5067458;28;45581;-87
2022/03/06 05:54:17;;;;;;;;;56.67;42.00;;;;;2.68;51.88;99226.34;5054741;28;46310;-86
2022/03/06 05:56:42;;;;;;;;;51.00;41.75;;;;;2.66;51.71;99231.56;5070107;28;45495;-73
2022/03/06 05:59:07;;;;;;;;;56.00;43.00;;;;;2.63;51.43;99231.56;5054412;28;45518;-73
2022/03/06 06:01:33;;;;;;;;;56.75;44.00;;;;;2.61;51.76;99232.44;5032051;28;45662;-73
2022/03/06 06:04:00;;;;;;;;;47.67;42.00;;;;;2.60;51.93;99239.38;5030752;28;46973;-73
2022/03/06 06:06:26;;;;;;;;;61.25;47.50;;;;;2.58;51.59;99238.53;5052593;28;45563;-86
2022/03/06 06:08:53;;;;;;;;;58.50;45.75;;;;;2.56;51.62;99234.19;5048918;28;45562;-86
2022/03/06 06:11:18;;;;;;;;;66.00;53.75;;;;;2.54;51.84;99238.56;5056798;28;45319;-86
2022/03/06 06:13:45;;;;;;;;;53.50;45.00;;;;;2.51;51.94;99233.38;5061600;28;45252;-86
2022/03/06 06:16:10;;;;;;;;;65.25;54.25;;;;;2.49;51.89;99229.94;5062183;28;45373;-86
2022/03/06 06:18:36;;;;;;;;;61.75;49.75;;;;;2.49;51.88;99235.13;5060952;28;45324;-73
2022/03/06 06:21:02;;;;;;;;;54.25;46.00;;;;;2.47;51.86;99237.75;5059474;28;45426;-73
2022/03/06 06:23:27;;;;;;;;;49.33;42.00;;;;;2.47;52.02;99236.88;5033728;28;47031;-73
2022/03/06 06:25:53;;;;;;;;;58.50;46.75;;;;;2.47;52.02;99240.34;5059787;28;45670;-74
2022/03/06 06:28:18;;;;;;;;;47.00;41.33;;;;;2.48;52.43;99239.47;5047035;28;45426;-73
2022/03/06 06:30:44;;;;;;;;;48.00;41.00;;;;;2.48;52.34;99247.28;5062355;28;45287;-73
2022/03/06 06:33:09;;;;;;;;;55.67;42.33;;;;;2.48;52.05;99242.06;5055245;28;46031;-74
2022/03/06 06:35:35;;;;;;;;;53.00;42.50;;;;;2.47;52.03;99248.16;5059949;28;45338;-73
2022/03/06 06:38:01;;;;;;;;;49.75;40.75;;;;;2.47;51.90;99247.28;5060147;28;45289;-73
2022/03/06 06:40:26;;;;;;;;;56.67;41.67;;;;;2.45;51.85;99242.94;5061111;28;45586;-72
2022/03/06 06:42:52;;;;;;;;;45.67;39.33;;;;;2.47;52.05;99252.50;5058448;28;45689;-74
2022/03/06 06:45:18;;;;;;;;;47.00;41.25;;;;;2.48;51.61;99251.63;5069064;28;45968;-73
2022/03/06 06:47:43;;;;;;;;;46.00;42.00;;;;;2.46;51.80;99254.22;5042414;28;45312;-72
2022/03/06 06:50:09;;;;;;;;;49.67;42.67;;;;;2.48;51.91;99252.47;5060471;28;45498;-75
2022/03/06 06:52:35;;;;;;;;;56.00;42.50;;;;;2.51;52.37;99256.81;5067202;28;45424;-72
2022/03/06 06:55:00;;;;;;;;;57.75;42.00;;;;;2.52;52.13;99258.50;5064009;28;45476;-74
2022/03/06 06:57:25;;;;;;;;;49.25;42.00;;;;;2.54;52.08;99256.75;5054883;28;45442;-72
2022/03/06 06:59:51;;;;;;;;;47.00;41.33;;;;;2.60;52.00;99252.41;5059464;28;45554;-73
2022/03/06 07:02:16;;;;;;;;;52.00;41.33;;;;;2.63;51.98;99249.78;5042588;28;47405;-72
2022/03/06 07:04:42;;;;;;;;;58.50;41.25;;;;;2.67;51.83;99248.03;5061054;28;45350;-72
2022/03/06 07:07:07;;;;;;;;;34.67;31.00;;;;;2.69;51.81;99254.94;5060675;28;45443;-72
2022/03/06 07:09:33;;;;;;;;;44.33;36.67;;;;;2.72;51.92;99254.91;5057266;28;45401;-72
2022/03/06 07:11:58;;;;;;;;;51.67;40.33;;;;;2.77;51.66;99258.38;5054722;28;46354;-73
2022/03/06 07:14:24;;;;;;;;;43.00;38.00;;;;;2.81;51.29;99256.59;5059619;28;45680;-73
2022/03/06 07:16:49;;;;;;;;;47.67;39.67;;;;;2.86;51.62;99269.56;5054717;28;45554;-73
2022/03/06 07:19:16;;;;;;;;;58.00;43.00;;;;;2.91;52.04;99260.00;5044931;28;45416;-72
2022/03/06 07:21:41;;;;;;;;;42.33;38.33;;;;;2.95;51.57;99266.91;5056488;28;45503;-73
2022/03/06 07:24:07;;;;;;;;;53.33;40.67;;;;;3.00;51.38;99265.16;5053363;28;45310;-72
2022/03/06 07:26:33;;;;;;;;;47.00;41.33;;;;;3.06;51.24;99259.88;5048717;28;45184;-73
2022/03/06 07:28:58;;;;;;;;;52.00;42.00;;;;;3.08;51.16;99266.81;5055437;28;45595;-73
2022/03/06 07:31:24;;;;;;;;;38.33;31.33;;;;;3.10;51.06;99261.59;5050612;28;46579;-73
2022/03/06 07:33:49;;;;;;;;;48.67;38.67;;;;;3.08;51.04;99265.94;5055875;28;45440;-73
2022/03/06 07:36:15;;;;;;;;;37.33;33.67;;;;;3.04;50.93;99270.31;5032600;28;45600;-73
2022/03/06 07:38:41;;;;;;;;;40.00;34.00;;;;;3.04;51.28;99272.91;5058855;28;45608;-73
2022/03/06 07:41:06;;;;;;;;;48.33;41.67;;;;;3.07;51.02;99277.25;5042361;28;46129;-73
2022/03/06 07:43:32;;;;;;;;;38.33;34.33;;;;;3.08;50.89;99277.22;5055018;28;45460;-73
2022/03/06 07:45:57;;;;;;;;;49.33;38.67;;;;;3.12;50.73;99278.06;5055417;28;45314;-73
2022/03/06 07:48:23;;;;;;;;;52.33;40.00;;;;;3.18;50.66;99279.78;5043980;28;46266;-73
2022/03/06 07:50:48;;;;;;;;;38.67;38.00;;;;;3.21;50.40;99277.13;5055631;28;46052;-73
2022/03/06 07:53:14;;;;;;;;;39.00;33.33;;;;;3.26;50.49;99277.97;5044388;28;45520;-72
2022/03/06 07:55:40;;;;;;;;;50.67;40.67;;;;;3.34;50.39;99278.78;5055349;28;45654;-72
2022/03/06 07:58:05;;;;;;;;;38.67;36.33;;;;;3.42;50.57;99276.94;5053445;28;45471;-72
2022/03/06 08:00:31;;;;;;;;;42.00;38.00;;;;;3.49;50.30;99276.03;5048681;28;47650;-72
2022/03/06 08:02:56;;;;;;;;;50.33;39.33;;;;;3.56;49.63;99276.81;5049722;28;45386;-73
2022/03/06 08:05:23;;;;;;;;;42.67;37.00;;;;;3.60;50.14;99283.72;5037445;28;45420;-74
2022/03/06 08:07:48;;;;;;;;;55.00;43.67;;;;;3.65;49.83;99288.03;5052499;28;45722;-74
2022/03/06 08:10:14;;;;;;;;;57.67;43.67;;;;;3.72;49.71;99281.88;5052436;28;46103;-73
2022/03/06 08:12:43;;;;;;;;;52.00;39.33;;;;;3.77;49.42;99284.44;5034468;28;45405;-72
2022/03/06 08:15:09;;;;;;;;;45.00;39.67;;;;;3.79;49.77;99278.31;5054752;28;45498;-74
2022/03/06 08:17:36;;;;;;;;;45.00;40.00;;;;;3.85;49.72;99286.06;5055121;28;45500;-74
2022/03/06 08:20:02;;;;;;;;;43.00;38.00;;;;;3.91;49.85;99287.75;5054921;28;46258;-73
2022/03/06 08:22:28;;;;;;;;;45.33;40.00;;;;;3.98;49.51;99293.78;5052410;28;45467;-73
2022/03/06 08:24:56;;;;;;;;;52.00;43.33;;;;;4.01;49.09;99289.41;5055187;28;45364;-73
2022/03/06 08:27:22;;;;;;;;;46.67;40.33;;;;;4.06;49.08;99282.38;5034915;28;45544;-73
2022/03/06 08:29:48;;;;;;;;;44.67;35.67;;;;;4.10;49.11;99284.06;5064387;28;45504;-73
2022/03/06 08:32:14;;;;;;;;;48.33;42.00;;;;;4.17;49.19;99287.47;5054336;28;45427;-74
2022/03/06 08:34:40;;;;;;;;;55.00;41.67;;;;;4.20;48.98;99288.28;5061369;28;45506;-74
2022/03/06 08:37:05;;;;;;;;;43.00;39.33;;;;;4.26;49.24;99289.97;5050854;28;45476;-74
2022/03/06 08:39:31;;;;;;;;;46.33;41.00;;;;;4.34;49.10;99290.75;5053565;28;45878;-74
2022/03/06 08:41:56;;;;;;;;;42.33;37.00;;;;;4.41;49.00;99283.69;5043688;28;45435;-73
2022/03/06 08:44:22;;;;;;;;;46.67;39.67;;;;;4.49;48.75;99285.34;5037018;28;45745;-74
2022/03/06 08:46:48;;;;;;;;;48.67;43.00;;;;;4.59;48.22;99282.59;5051340;28;45526;-73
2022/03/06 08:49:14;;;;;;;;;44.00;39.00;;;;;4.67;48.09;99275.53;5054509;28;45437;-74
2022/03/06 08:51:39;;;;;;;;;51.00;38.67;;;;;4.74;48.09;99270.19;5053409;28;45408;-74
2022/03/06 08:54:05;;;;;;;;;44.00;39.67;;;;;4.81;47.92;99268.34;5048754;28;45388;-74
2022/03/06 08:56:30;;;;;;;;;47.67;37.00;;;;;4.88;47.44;99272.59;5048765;28;45506;-75
2022/03/06 08:58:56;;;;;;;;;51.00;39.00;;;;;4.96;47.51;99270.72;5052210;28;45377;-75
2022/03/06 09:01:21;;;;;;;;;51.00;43.67;;;;;5.04;47.48;99274.06;5055182;28;45567;-75
2022/03/06 09:03:47;;;;;;;;;43.33;39.33;;;;;5.11;47.41;99269.63;5053156;28;45502;-73
2022/03/06 09:06:12;;;;;;;;;42.67;39.00;;;;;5.20;47.18;99269.47;5044696;28;45550;-73
2022/03/06 09:08:38;;;;;;;;;52.67;37.00;;;;;5.30;46.53;99270.19;5047475;28;46515;-73
2022/03/06 09:11:06;;;;;;;;;42.33;35.00;;;;;5.35;46.40;99264.03;5049122;28;45445;-73
2022/03/06 09:13:33;;;;;;;;;42.00;37.33;;;;;5.41;45.87;99255.19;5052505;28;45526;-73
2022/03/06 09:15:58;;;;;;;;;40.33;34.00;;;;;5.48;45.63;99259.44;5052982;28;45525;-73
2022/03/06 09:18:24;;;;;;;;;31.67;26.67;;;;;5.55;45.70;99255.81;5048249;28;45508;-74
2022/03/06 09:20:50;;;;;;;;;37.00;34.67;;;;;5.64;45.73;99257.41;5053867;28;45380;-73
2022/03/06 09:23:16;;;;;;;;;40.33;36.33;;;;;5.73;45.75;99259.84;5052517;28;45404;-73
2022/03/06 09:25:42;;;;;;;;;36.00;32.33;;;;;5.80;45.31;99256.22;5052967;28;45569;-74
2022/03/06 09:28:07;;;;;;;;;36.00;31.33;;;;;5.87;45.28;99255.22;5049328;28;46009;-74
2022/03/06 09:30:34;;;;;;;;;37.00;33.67;;;;;5.91;45.13;99249.94;5052243;28;45520;-73
2022/03/06 09:33:02;;;;;;;;;40.00;30.67;;;;;5.98;45.13;99245.47;5048695;28;45660;-74
2022/03/06 09:35:28;;;;;;;;;41.67;31.67;;;;;6.04;45.01;99249.69;5052706;28;45596;-74
2022/03/06 09:37:54;;;;;;;;;46.33;36.00;;;;;6.10;44.91;99247.81;5044245;28;45473;-74
2022/03/06 09:40:20;;;;;;;;;50.00;36.00;;;;;6.18;44.66;99242.44;5047299;28;45444;-57
2022/03/06 09:42:45;;;;;;;;;44.33;37.33;;;;;6.36;44.73;99239.44;5044509;28;45493;-59
2022/03/06 09:45:13;;;;;;;;;45.67;38.67;;;;;6.55;44.46;99238.13;5035835;28;45485;-50
2022/03/06 09:47:40;;;;;;;;;50.67;40.33;;;;;6.71;44.53;99233.41;5050758;28;45666;-65
2022/03/06 09:50:08;;;;;;;;;43.67;38.67;;;;;6.78;44.11;99235.00;5053490;28;45932;-67
2022/03/06 09:52:33;;;;;;;;;49.67;38.33;;;;;6.84;44.47;99231.38;5029459;28;45528;-65
2022/03/06 09:55:00;;;;;;;;;43.67;37.67;;;;;6.91;44.64;99232.94;5051527;28;45645;-65
2022/03/06 09:57:25;;;;;;;;;44.33;37.33;;;;;6.98;44.18;99237.16;5046427;28;46822;-65
2022/03/06 09:59:51;;;;;;;;;45.33;38.00;;;;;7.04;43.82;99239.63;5054692;28;45222;-65
2022/03/06 10:02:16;;;;;;;;;44.67;36.33;;;;;7.11;43.88;99230.72;5043146;28;45397;-64
2022/03/06 10:04:43;;;;;;;;;48.00;40.33;;;;;7.15;43.76;99240.25;5053902;28;45484;-64
2022/03/06 10:07:16;;;;;;;;;42.00;37.00;;;;;7.18;43.38;99240.16;5045796;28;45435;-66
2022/03/06 10:09:52;;;;;;;;;47.33;38.33;;;;;7.20;43.08;99235.75;5038434;28;45492;-65
2022/03/06 10:12:32;;;;;;;;;44.00;34.33;;;;;7.20;43.35;99230.50;5032121;28;45775;-70
2022/03/06 10:15:01;;;;;;;;;41.00;36.00;;;;;7.21;43.06;99233.97;5055561;28;45501;-61
2022/03/06 10:17:28;;;;;;;;;42.33;37.33;;;;;7.22;42.81;99231.31;5050054;28;45452;-61
2022/03/06 10:20:03;;;;;;;;;48.33;37.67;;;;;7.29;42.59;99239.88;5051062;28;45567;-61
2022/03/06 10:22:33;;;;;;;;;40.67;36.33;;;;;7.38;42.03;99231.78;5050254;28;45424;-63
2022/03/06 10:24:59;;;;;;;;;42.33;37.00;;;;;7.46;42.02;99229.84;5052059;28;45557;-62
2022/03/06 10:27:54;;;;;;;;;42.33;35.00;;;;;7.52;41.94;99237.56;5028359;28;46753;-63
2022/03/06 10:30:32;;;;;;;;;50.67;39.00;;;;;7.56;41.90;99233.94;5050494;28;45419;-62
2022/03/06 10:33:10;;;;;;;;;41.33;34.33;;;;;7.59;41.43;99225.97;5043252;28;45579;-62
2022/03/06 10:35:47;;;;;;;;;51.33;40.33;;;;;7.62;41.84;99236.41;5042216;28;45469;-62
2022/03/06 10:38:39;;;;;;;;;52.00;36.00;;;;;7.67;42.06;99228.41;5055313;28;45435;-63
2022/03/06 10:41:15;;;;;;;;;41.33;36.00;;;;;7.73;41.09;99230.84;5046392;28;45369;-62
2022/03/06 10:43:41;;;;;;;;;43.33;37.33;;;;;7.78;41.01;99222.88;5043056;28;45416;-63
2022/03/06 10:46:11;;;;;;;;;44.00;34.33;;;;;7.85;40.73;99225.31;5043573;28;45446;-62
2022/03/06 10:48:37;;;;;;;;;42.00;34.33;;;;;7.91;40.46;99227.75;5046312;28;45582;-63
2022/03/06 10:51:09;;;;;;;;;40.00;34.67;;;;;7.98;40.62;99231.94;5034126;28;45357;-63
2022/03/06 10:53:35;;;;;;;;;49.33;36.67;;;;;8.03;40.12;99230.03;5048658;28;45175;-63
2022/03/06 10:56:14;;;;;;;;;33.67;29.67;;;;;8.06;40.50;99223.81;5051695;28;45374;-63
2022/03/06 10:58:42;;;;;;;;;40.33;35.00;;;;;8.08;40.32;99222.00;5050711;28;45417;-63
2022/03/06 11:01:08;;;;;;;;;39.67;34.33;;;;;8.15;40.13;99223.56;5044911;28;45572;-63
2022/03/06 11:03:35;;;;;;;;;40.33;36.00;;;;;8.20;39.60;99224.31;5047660;28;45322;-63
2022/03/06 11:06:05;;;;;;;;;35.00;33.67;;;;;8.25;39.90;99222.38;5036954;28;45523;-63
2022/03/06 11:08:31;;;;;;;;;40.00;34.00;;;;;8.26;39.87;99204.88;5039240;28;46075;-63
2022/03/06 11:10:57;;;;;;;;;40.67;33.33;;;;;8.30;39.38;99211.75;5057210;28;45512;-63
2022/03/06 11:13:23;;;;;;;;;41.00;28.00;;;;;8.34;39.20;99214.28;5052149;28;45559;-63
2022/03/06 11:15:50;;;;;;;;;38.67;33.33;;;;;8.40;39.00;99205.34;5059323;28;45384;-63
2022/03/06 11:18:16;;;;;;;;;42.67;38.00;;;;;8.43;39.25;99207.88;5049242;28;45535;-63
2022/03/06 11:20:44;;;;;;;;;30.33;26.33;;;;;8.45;38.53;99208.72;5050163;28;45763;-63